createdAt,value
2023-02-17T00:03:33.105Z,96740.69
2023-02-17T00:08:35.044Z,96743.44
2023-02-17T00:13:36.604Z,96740.94
2023-02-17T00:18:38.093Z,96738.88
2023-02-17T00:23:39.582Z,96740.09
2023-02-17T00:28:41.714Z,96754.09
2023-02-17T00:33:43.679Z,96748.63
2023-02-17T00:38:46.618Z,96755.44
2023-02-17T00:43:49.503Z,96757.66
2023-02-17T00:48:51.130Z,96754.16
2023-02-17T00:53:52.666Z,96756.13
2023-02-17T00:58:54.108Z,96760.66
2023-02-17T01:03:55.578Z,96758.53
2023-02-17T01:08:57.062Z,96763.56
2023-02-17T01:14:01.789Z,96766.78
2023-02-17T01:19:09.309Z,96766.97
2023-02-17T01:24:12.493Z,96759.16
2023-02-17T01:29:13.983Z,96751.00
2023-02-17T01:34:15.489Z,96748.53
2023-02-17T01:39:17.230Z,96743.34
2023-02-17T01:44:23.805Z,96735.63
2023-02-17T01:49:36.574Z,96742.91
2023-02-17T01:54:46.331Z,96732.50
2023-02-17T01:59:48.700Z,96735.88
2023-02-17T02:04:53.233Z,96732.88
2023-02-17T02:09:56.824Z,96733.50
2023-02-17T02:15:06.418Z,96723.41
2023-02-17T02:20:28.401Z,96715.34
2023-02-17T02:25:51.678Z,96713.44
2023-02-17T02:31:15.343Z,96713.81
2023-02-17T02:36:29.483Z,96717.78
2023-02-17T02:41:36.245Z,96712.69
2023-02-17T02:46:38.462Z,96700.97
2023-02-17T02:51:51.244Z,96702.50
2023-02-17T02:57:06.937Z,96710.09
2023-02-17T03:02:24.120Z,96703.75
2023-02-17T03:07:33.787Z,96696.06
2023-02-17T03:12:38.316Z,96707.00
2023-02-17T03:17:40.224Z,96698.09
2023-02-17T03:22:45.705Z,96708.91
2023-02-17T03:27:48.836Z,96700.03
2023-02-17T03:32:50.851Z,96696.88
2023-02-17T03:37:52.365Z,96704.69
2023-02-17T03:42:53.903Z,96699.31
2023-02-17T03:47:55.358Z,96701.44
2023-02-17T03:52:56.839Z,96697.13
2023-02-17T03:57:58.322Z,96702.66
2023-02-17T04:02:59.779Z,96695.44
2023-02-17T04:08:01.232Z,96694.00
2023-02-17T04:13:02.712Z,96696.88
2023-02-17T04:18:04.174Z,96698.69
2023-02-17T04:23:05.664Z,96701.34
2023-02-17T04:28:07.544Z,96713.00
2023-02-17T04:33:09.015Z,96711.31
2023-02-17T04:38:11.027Z,96709.03
2023-02-17T04:43:12.542Z,96706.75
2023-02-17T04:48:14.067Z,96708.41
2023-02-17T04:53:15.918Z,96713.97
2023-02-17T04:58:18.000Z,96697.81
2023-02-17T05:03:19.696Z,96703.72
2023-02-17T05:08:21.311Z,96696.03
2023-02-17T05:13:22.841Z,96692.28
2023-02-17T05:18:24.303Z,96686.03
2023-02-17T05:23:25.779Z,96687.88
2023-02-17T05:28:27.344Z,96689.53
2023-02-17T05:33:29.089Z,96697.72
2023-02-17T05:38:30.664Z,96688.56
2023-02-17T05:43:32.487Z,96687.75
2023-02-17T05:48:34.047Z,96693.97
2023-02-17T05:53:35.481Z,96691.69
2023-02-17T05:58:37.036Z,96700.97
2023-02-17T06:03:38.976Z,96685.56
2023-02-17T06:08:40.420Z,96689.19
2023-02-17T06:13:41.927Z,96696.88
2023-02-17T06:18:43.397Z,96696.03
2023-02-17T06:23:45.005Z,96681.25
2023-02-17T06:28:46.581Z,96686.91
2023-02-17T06:33:48.112Z,96697.59
2023-02-17T06:38:49.658Z,96711.66
2023-02-17T06:43:51.088Z,96714.41
2023-02-17T06:48:52.571Z,96718.75
2023-02-17T06:53:54.362Z,96727.28
2023-02-17T06:58:55.857Z,96741.13
2023-02-17T07:03:57.568Z,96731.22
2023-02-17T07:08:59.060Z,96740.13
2023-02-17T07:14:00.587Z,96745.28
2023-02-17T07:19:02.065Z,96748.50
2023-02-17T07:24:03.651Z,96760.47
2023-02-17T07:29:06.484Z,96769.22
2023-02-17T07:34:07.960Z,96759.47
2023-02-17T07:39:09.439Z,96762.72
2023-02-17T07:44:10.883Z,96769.31
2023-02-17T07:49:14.749Z,96772.16
2023-02-17T07:54:16.231Z,96778.19
2023-02-17T07:59:17.722Z,96769.72
2023-02-17T08:04:19.983Z,96779.28
2023-02-17T08:09:21.458Z,96779.88
2023-02-17T08:14:24.779Z,96779.78
2023-02-17T08:19:31.739Z,96785.44
2023-02-17T08:24:41.024Z,96779.97
2023-02-17T08:29:43.263Z,96790.91
2023-02-17T08:34:44.833Z,96798.47
2023-02-17T08:39:46.329Z,96805.19
2023-02-17T08:44:47.798Z,96809.06
2023-02-17T08:49:49.331Z,96819.63
2023-02-17T08:54:52.549Z,96824.91
2023-02-17T08:59:54.311Z,96824.88
2023-02-17T09:04:55.834Z,96835.59
2023-02-17T09:09:57.437Z,96819.91
2023-02-17T09:14:58.918Z,96827.94
2023-02-17T09:20:00.406Z,96828.13
2023-02-17T09:25:02.360Z,96815.75
2023-02-17T09:30:04.394Z,96835.38
2023-02-17T09:35:06.250Z,96833.75
2023-02-17T09:40:09.977Z,96840.84
2023-02-17T09:45:22.130Z,96842.69
2023-02-17T09:50:29.543Z,96843.16
2023-02-17T09:55:49.141Z,96854.16
2023-02-17T10:00:55.969Z,96862.22
2023-02-17T10:06:20.512Z,96851.81
2023-02-17T10:11:29.944Z,96860.22
2023-02-17T10:16:50.254Z,96859.56
2023-02-17T10:22:02.169Z,96866.78
2023-02-17T10:27:18.929Z,96867.28
2023-02-17T10:32:25.828Z,96858.44
2023-02-17T10:37:39.278Z,96868.31
2023-02-17T10:42:40.818Z,96855.84
2023-02-17T10:47:42.515Z,96849.88
2023-02-17T10:52:44.008Z,96855.25
2023-02-17T10:57:50.191Z,96836.63
2023-02-17T11:02:53.255Z,96833.09
2023-02-17T11:08:04.536Z,96827.97
2023-02-17T11:13:37.150Z,96812.22
2023-02-17T11:18:47.422Z,96813.56
2023-02-17T11:23:55.305Z,96807.69
2023-02-17T11:29:11.242Z,96796.06
2023-02-17T11:34:23.444Z,96786.97
2023-02-17T11:39:24.983Z,96776.22
2023-02-17T11:44:28.250Z,96779.31
2023-02-17T11:49:42.872Z,96776.38
2023-02-17T11:55:05.449Z,96775.09
2023-02-17T12:00:27.944Z,96775.41
2023-02-17T12:06:06.152Z,96770.19
2023-02-17T12:11:24.000Z,96768.41
2023-02-17T12:17:02.906Z,96774.25
2023-02-17T12:22:16.672Z,96766.03
2023-02-17T12:27:54.406Z,96753.69
2023-02-17T12:33:19.969Z,96766.28
2023-02-17T12:38:32.724Z,96755.09
2023-02-17T12:43:50.233Z,96763.34
2023-02-17T12:48:57.335Z,96761.53
2023-02-17T12:54:15.587Z,96760.69
2023-02-17T12:59:21.646Z,96751.91
2023-02-17T13:04:25.492Z,96750.34
2023-02-17T13:09:36.746Z,96744.31
2023-02-17T13:14:56.316Z,96755.13
2023-02-17T13:20:03.991Z,96760.13
2023-02-17T13:53:23.501Z,96761.91
2023-02-17T14:03:52.539Z,96753.53
2023-02-17T14:08:54.337Z,96748.94
2023-02-17T14:13:57.636Z,96757.75
2023-02-17T14:19:03.752Z,96758.16
2023-02-17T14:24:05.430Z,96756.88
2023-02-17T14:29:09.563Z,96754.34
2023-02-17T14:34:29.136Z,96753.38
2023-02-17T14:39:30.636Z,96756.31
2023-02-17T14:44:32.170Z,96755.09
2023-02-17T14:49:33.717Z,96761.97
2023-02-17T14:54:35.246Z,96756.19
2023-02-17T14:59:36.758Z,96751.88
2023-02-17T15:04:38.281Z,96755.94
2023-02-17T15:09:40.628Z,96754.69
2023-02-17T15:14:42.141Z,96760.97
2023-02-17T15:19:43.609Z,96763.34
2023-02-17T15:24:45.127Z,96752.16
2023-02-17T15:29:46.610Z,96760.41
2023-02-17T15:34:48.266Z,96759.41
2023-02-17T15:39:49.772Z,96764.75
2023-02-17T15:44:51.246Z,96760.38
2023-02-17T15:49:52.683Z,96761.22
2023-02-17T15:54:54.208Z,96750.88
2023-02-17T15:59:55.754Z,96753.78
2023-02-17T16:04:57.202Z,96755.91
2023-02-17T16:09:58.626Z,96753.09
2023-02-17T16:15:00.196Z,96753.25
2023-02-17T16:20:01.761Z,96756.03
2023-02-17T16:25:03.423Z,96752.50
2023-02-17T16:30:35.585Z,96762.13
2023-02-17T16:35:37.779Z,96762.81
2023-02-17T16:40:42.938Z,96749.38
2023-02-17T16:45:51.230Z,96752.44
2023-02-17T16:50:52.998Z,96752.38
2023-02-17T16:55:54.918Z,96756.84
2023-02-17T17:00:56.399Z,96759.91
2023-02-17T17:05:57.996Z,96761.28
2023-02-17T17:10:59.494Z,96762.66
2023-02-17T17:16:01.026Z,96766.78
2023-02-17T17:21:02.592Z,96780.00
2023-02-17T17:26:33.747Z,96788.47
2023-02-17T17:31:35.334Z,96788.09
2023-02-17T17:36:41.054Z,96782.09
2023-02-17T17:41:42.685Z,96791.94
2023-02-17T17:46:44.457Z,96786.19
2023-02-17T17:51:46.081Z,96793.84
2023-02-17T17:56:47.614Z,96809.06
2023-02-17T18:01:49.208Z,96803.66
2023-02-17T18:06:53.703Z,96813.81
2023-02-17T18:11:56.765Z,96806.25
2023-02-17T18:16:58.794Z,96809.22
2023-02-17T18:22:00.326Z,96792.25
2023-02-17T18:27:01.832Z,96796.91
2023-02-17T18:32:03.424Z,96800.22
2023-02-17T18:37:07.245Z,96811.97
2023-02-17T18:42:08.780Z,96815.16
2023-02-17T18:47:10.385Z,96825.34
2023-02-17T18:52:11.860Z,96814.03
2023-02-17T18:57:13.568Z,96809.84
2023-02-17T19:02:15.052Z,96819.38
2023-02-17T19:07:16.507Z,96826.94
2023-02-17T19:12:18.104Z,96825.94
2023-02-17T19:17:19.582Z,96826.63
2023-02-17T19:22:21.135Z,96824.31
2023-02-17T19:27:22.670Z,96825.09
2023-02-17T19:32:24.180Z,96822.66
2023-02-17T19:37:25.685Z,96820.00
2023-02-17T19:42:27.245Z,96826.91
2023-02-17T19:47:28.757Z,96821.75
2023-02-17T19:52:30.204Z,96824.41
2023-02-17T19:57:31.683Z,96827.06
2023-02-17T20:02:33.260Z,96833.81
2023-02-17T20:07:34.867Z,96825.28
2023-02-17T20:12:37.022Z,96836.00
2023-02-17T20:17:38.535Z,96832.25
2023-02-17T20:22:40.531Z,96842.59
2023-02-17T20:27:42.043Z,96837.47
2023-02-17T20:32:43.533Z,96842.03
2023-02-17T20:37:44.990Z,96845.00
2023-02-17T20:42:46.485Z,96841.00
2023-02-17T20:47:47.997Z,96827.13
2023-02-17T20:52:49.900Z,96815.72
2023-02-17T20:57:51.429Z,96831.03
2023-02-17T21:02:53.148Z,96846.66
2023-02-17T21:07:56.825Z,96831.53
2023-02-17T21:12:58.323Z,96839.63
2023-02-17T21:17:59.862Z,96844.22
2023-02-17T21:23:01.318Z,96847.25
2023-02-17T21:28:02.802Z,96853.28
2023-02-17T21:33:04.319Z,96858.94
2023-02-17T21:38:05.836Z,96858.66
2023-02-17T21:43:07.325Z,96861.44
2023-02-17T21:48:08.874Z,96861.00
2023-02-17T21:53:10.379Z,96853.53
2023-02-17T21:58:11.879Z,96852.78
2023-02-17T22:03:13.318Z,96862.06
2023-02-17T22:08:14.794Z,96865.00
2023-02-17T22:13:16.252Z,96865.34
2023-02-17T22:18:17.684Z,96864.50
2023-02-17T22:23:19.127Z,96864.97
2023-02-17T22:28:20.681Z,96869.56
2023-02-17T22:33:22.192Z,96873.03
2023-02-17T22:38:23.674Z,96870.97
2023-02-17T22:43:25.223Z,96883.59
2023-02-17T22:48:28.498Z,96876.28
2023-02-17T22:53:30.026Z,96888.31
2023-02-17T22:58:32.525Z,96883.13
2023-02-17T23:03:34.955Z,96895.25
2023-02-17T23:08:36.933Z,96887.72
2023-02-17T23:13:38.934Z,96890.38
2023-02-17T23:18:40.375Z,96885.94
2023-02-17T23:23:41.886Z,96896.22
2023-02-17T23:28:43.323Z,96893.34
2023-02-17T23:33:44.743Z,96897.16
2023-02-17T23:38:46.247Z,96888.00
2023-02-17T23:43:47.702Z,96892.47
2023-02-17T23:48:49.376Z,96893.91
2023-02-17T23:53:51.242Z,96889.13
2023-02-17T23:58:52.788Z,96893.22
